createdAt,value
2023-03-11T00:00:30.134Z,94.48
2023-03-11T00:02:53.949Z,94.22
2023-03-11T00:05:22.822Z,93.82
2023-03-11T00:07:44.654Z,94.00
2023-03-11T00:10:08.102Z,93.84
2023-03-11T00:12:29.548Z,93.74
2023-03-11T00:14:51.050Z,95.05
2023-03-11T00:17:12.474Z,94.95
2023-03-11T00:19:33.934Z,92.50
2023-03-11T00:21:55.538Z,94.76
2023-03-11T00:24:16.997Z,92.31
2023-03-11T00:26:38.588Z,92.20
2023-03-11T00:29:00.046Z,91.72
2023-03-11T00:31:22.852Z,92.24
2023-03-11T00:33:44.587Z,93.07
2023-03-11T00:36:07.042Z,93.63
2023-03-11T00:38:28.538Z,92.98
2023-03-11T00:40:50.492Z,92.40
2023-03-11T00:43:12.701Z,92.52
2023-03-11T00:45:34.248Z,92.80
2023-03-11T00:47:56.332Z,94.80
2023-03-11T00:50:22.086Z,92.90
2023-03-11T00:52:44.832Z,93.27
2023-03-11T00:55:06.896Z,93.41
2023-03-11T00:57:29.222Z,92.77
2023-03-11T00:59:50.935Z,92.98
2023-03-11T01:02:12.534Z,92.45
2023-03-11T01:04:34.028Z,91.37
2023-03-11T01:06:55.469Z,90.33
2023-03-11T01:09:16.948Z,92.28
2023-03-11T01:11:38.361Z,91.55
2023-03-11T01:14:00.356Z,91.34
2023-03-11T01:16:21.932Z,90.51
2023-03-11T01:18:43.450Z,88.50
2023-03-11T01:21:05.210Z,90.75
2023-03-11T01:23:26.718Z,90.94
2023-03-11T01:25:48.478Z,91.10
2023-03-11T01:28:10.212Z,90.70
2023-03-11T01:30:31.701Z,90.58
2023-03-11T01:32:55.550Z,89.98
2023-03-11T01:35:18.652Z,91.16
2023-03-11T01:37:40.400Z,90.62
2023-03-11T01:40:01.854Z,90.33
2023-03-11T01:42:23.593Z,90.10
2023-03-11T01:44:45.096Z,89.21
2023-03-11T01:47:09.613Z,89.25
2023-03-11T01:49:31.063Z,90.41
2023-03-11T01:51:57.482Z,90.63
2023-03-11T01:54:23.724Z,91.61
2023-03-11T01:56:46.547Z,90.70
2023-03-11T01:59:11.356Z,92.88
2023-03-11T02:01:32.953Z,93.68
2023-03-11T02:03:55.333Z,94.15
2023-03-11T02:06:23.853Z,90.54
2023-03-11T02:08:46.177Z,93.30
2023-03-11T02:11:09.998Z,93.60
2023-03-11T02:13:35.242Z,94.16
2023-03-11T02:15:57.225Z,92.70
2023-03-11T02:18:20.407Z,92.75
2023-03-11T02:21:06.145Z,89.43
2023-03-11T02:23:36.599Z,91.95
2023-03-11T02:26:37.427Z,89.45
2023-03-11T02:29:00.510Z,88.56
2023-03-11T02:31:23.942Z,87.13
2023-03-11T02:33:49.155Z,87.22
2023-03-11T02:36:40.909Z,88.19
2023-03-11T02:39:02.898Z,86.19
2023-03-11T02:41:24.496Z,85.41
2023-03-11T02:43:46.804Z,83.04
2023-03-11T02:46:11.637Z,79.70
2023-03-11T02:48:34.718Z,77.41
2023-03-11T02:50:56.823Z,77.60
2023-03-11T02:53:18.587Z,76.33
2023-03-11T02:55:40.116Z,73.52
2023-03-11T02:58:02.052Z,73.51
2023-03-11T03:00:23.612Z,76.05
2023-03-11T03:02:45.797Z,74.03
2023-03-11T03:05:07.927Z,76.20
2023-03-11T03:07:29.480Z,73.92
2023-03-11T03:09:50.948Z,75.25
2023-03-11T03:12:12.400Z,76.40
2023-03-11T03:14:34.963Z,75.91
2023-03-11T03:16:57.160Z,75.72
2023-03-11T03:19:19.052Z,77.05
2023-03-11T03:21:41.304Z,78.13
2023-03-11T03:24:03.292Z,75.85
2023-03-11T03:26:24.775Z,74.46
2023-03-11T03:28:46.367Z,76.54
2023-03-11T03:31:09.462Z,77.62
2023-03-11T03:33:31.731Z,78.12
2023-03-11T03:35:53.220Z,77.03
2023-03-11T03:38:14.883Z,75.61
2023-03-11T03:40:36.714Z,78.02
2023-03-11T03:42:58.166Z,76.71
2023-03-11T03:45:19.692Z,75.08
2023-03-11T03:47:41.157Z,75.58
2023-03-11T03:50:08.041Z,77.48
2023-03-11T03:52:29.472Z,78.56
2023-03-11T03:54:51.000Z,74.42
2023-03-11T03:57:12.446Z,75.42
2023-03-11T03:59:33.921Z,75.18
2023-03-11T04:01:55.611Z,74.83
2023-03-11T04:04:17.236Z,75.37
2023-03-11T04:06:38.683Z,75.38
2023-03-11T04:09:00.254Z,76.04
2023-03-11T04:11:22.317Z,75.98
2023-03-11T04:13:44.858Z,75.16
2023-03-11T04:16:07.780Z,74.08
2023-03-11T04:18:29.291Z,74.80
2023-03-11T04:20:50.819Z,74.86
2023-03-11T04:23:13.025Z,76.04
2023-03-11T04:25:34.494Z,74.73
2023-03-11T04:27:55.941Z,75.78
2023-03-11T04:30:17.438Z,75.37
2023-03-11T04:32:39.027Z,77.07
2023-03-11T04:35:00.526Z,79.27
2023-03-11T04:37:21.976Z,76.40
2023-03-11T04:39:43.436Z,76.92
2023-03-11T04:42:05.118Z,78.45
2023-03-11T04:44:26.678Z,78.73
2023-03-11T04:46:48.108Z,78.36
2023-03-11T04:49:10.406Z,78.68
2023-03-11T04:51:31.929Z,79.87
2023-03-11T04:53:53.442Z,78.56
2023-03-11T04:56:14.880Z,80.48
2023-03-11T04:58:36.432Z,79.01
2023-03-11T05:00:57.955Z,80.71
2023-03-11T05:03:19.530Z,81.59
2023-03-11T05:05:41.047Z,82.27
2023-03-11T05:08:02.640Z,82.48
2023-03-11T05:10:24.123Z,82.34
2023-03-11T05:12:45.565Z,83.04
2023-03-11T05:15:07.517Z,83.32
2023-03-11T05:17:28.942Z,82.00
2023-03-11T05:19:51.719Z,83.02
2023-03-11T05:22:13.342Z,84.03
2023-03-11T05:24:35.131Z,85.34
2023-03-11T05:26:57.291Z,84.36
2023-03-11T05:29:19.258Z,83.64
2023-03-11T05:31:40.836Z,84.88
2023-03-11T05:34:02.290Z,84.43
2023-03-11T05:36:23.737Z,84.78
2023-03-11T05:38:45.154Z,84.19
2023-03-11T05:41:06.674Z,83.61
2023-03-11T05:43:28.365Z,84.50
2023-03-11T05:45:50.012Z,85.35
2023-03-11T05:48:11.462Z,86.05
2023-03-11T05:50:32.949Z,85.83
2023-03-11T05:52:54.442Z,85.03
2023-03-11T05:55:16.032Z,85.46
2023-03-11T05:57:37.596Z,86.20
2023-03-11T05:59:59.043Z,85.37
2023-03-11T06:02:21.178Z,86.06
2023-03-11T06:04:42.789Z,85.52
2023-03-11T06:07:04.660Z,85.94
2023-03-11T06:09:26.332Z,85.46
2023-03-11T06:11:47.799Z,83.76
2023-03-11T06:14:14.416Z,84.33
2023-03-11T06:16:35.945Z,82.39
2023-03-11T06:19:00.633Z,83.99
2023-03-11T06:21:24.136Z,83.58
2023-03-11T06:23:45.788Z,83.18
2023-03-11T06:26:07.276Z,83.58
2023-03-11T06:28:29.461Z,84.28
2023-03-11T06:30:50.965Z,83.20
2023-03-11T06:33:14.391Z,82.03
2023-03-11T06:35:35.899Z,81.81
2023-03-11T06:37:57.424Z,83.01
2023-03-11T06:40:19.213Z,80.70
2023-03-11T06:42:40.852Z,82.95
2023-03-11T06:45:02.396Z,83.04
2023-03-11T06:47:23.905Z,83.21
2023-03-11T06:49:45.363Z,83.53
2023-03-11T06:52:07.644Z,81.64
2023-03-11T06:54:29.086Z,83.10
2023-03-11T06:56:50.537Z,82.40
2023-03-11T06:59:14.141Z,82.99
2023-03-11T07:01:36.203Z,84.40
2023-03-11T07:03:57.721Z,82.13
2023-03-11T07:06:24.542Z,83.46
2023-03-11T07:08:48.129Z,82.72
2023-03-11T07:11:19.257Z,80.67
2023-03-11T07:13:41.668Z,82.55
2023-03-11T07:16:06.289Z,80.28
2023-03-11T07:18:28.413Z,80.09
2023-03-11T07:20:49.906Z,77.88
2023-03-11T07:23:11.341Z,81.06
2023-03-11T07:25:32.806Z,76.96
2023-03-11T07:27:54.230Z,77.67
2023-03-11T07:30:15.895Z,77.36
2023-03-11T07:32:37.455Z,75.10
2023-03-11T07:34:58.952Z,74.30
2023-03-11T07:37:20.585Z,72.86
2023-03-11T07:39:42.045Z,74.46
2023-03-11T07:42:04.836Z,73.89
2023-03-11T07:44:26.620Z,73.13
2023-03-11T07:46:48.096Z,71.17
2023-03-11T07:49:09.622Z,73.89
2023-03-11T07:51:33.867Z,73.20
2023-03-11T07:53:57.012Z,73.22
2023-03-11T07:56:19.478Z,71.44
2023-03-11T07:58:43.119Z,74.82
2023-03-11T08:01:08.406Z,72.17
2023-03-11T08:03:29.926Z,71.63
2023-03-11T08:05:51.861Z,72.80
2023-03-11T08:08:13.297Z,72.90
2023-03-11T08:10:37.538Z,69.75
2023-03-11T08:12:58.996Z,69.19
2023-03-11T08:15:20.453Z,68.97
2023-03-11T08:17:41.905Z,70.19
2023-03-11T08:20:05.100Z,70.92
2023-03-11T08:22:26.584Z,71.12
2023-03-11T08:24:51.807Z,70.61
2023-03-11T08:27:13.317Z,71.69
2023-03-11T08:29:34.758Z,71.85
2023-03-11T08:31:56.215Z,68.01
2023-03-11T08:34:17.919Z,67.86
2023-03-11T08:36:39.539Z,67.76
2023-03-11T08:39:01.261Z,66.99
2023-03-11T08:41:23.097Z,68.68
2023-03-11T08:43:44.742Z,67.25
2023-03-11T08:46:07.078Z,67.95
2023-03-11T08:48:28.875Z,68.02
2023-03-11T08:50:54.199Z,66.21
2023-03-11T08:53:16.150Z,64.51
2023-03-11T08:55:37.748Z,65.85
2023-03-11T08:57:59.231Z,63.17
2023-03-11T09:00:21.182Z,65.63
2023-03-11T09:02:43.451Z,65.01
2023-03-11T09:05:05.273Z,66.69
2023-03-11T09:07:26.715Z,63.87
2023-03-11T09:09:48.186Z,67.01
2023-03-11T09:12:10.039Z,62.77
2023-03-11T09:14:31.507Z,64.72
2023-03-11T09:16:52.964Z,60.27
2023-03-11T09:19:14.412Z,61.42
2023-03-11T09:21:37.224Z,64.62
2023-03-11T09:23:58.708Z,61.55
2023-03-11T09:26:20.304Z,57.43
2023-03-11T09:28:42.550Z,57.37
2023-03-11T09:31:04.209Z,58.63
2023-03-11T09:33:25.735Z,57.52
2023-03-11T09:35:47.371Z,57.59
2023-03-11T09:38:08.953Z,57.73
2023-03-11T09:40:47.011Z,56.97
2023-03-11T09:43:41.165Z,57.52
2023-03-11T09:46:44.776Z,56.19
2023-03-11T09:49:27.848Z,57.88
2023-03-11T09:52:07.341Z,55.55
2023-03-11T09:54:33.409Z,56.44
2023-03-11T09:56:55.427Z,54.40
2023-03-11T09:59:30.592Z,53.71
2023-03-11T10:01:52.315Z,56.82
2023-03-11T10:04:26.783Z,58.98
2023-03-11T10:06:48.798Z,54.57
2023-03-11T10:09:34.131Z,55.45
2023-03-11T10:12:16.486Z,55.76
2023-03-11T10:15:05.965Z,56.73
2023-03-11T10:17:59.601Z,56.35
2023-03-11T10:20:30.727Z,52.81
2023-03-11T10:22:52.237Z,51.69
2023-03-11T10:25:21.798Z,52.36
2023-03-11T10:27:51.449Z,53.28
2023-03-11T10:30:29.343Z,52.96
2023-03-11T10:33:21.996Z,50.88
2023-03-11T10:35:47.035Z,50.88
2023-03-11T10:38:19.500Z,52.02
2023-03-11T10:40:43.742Z,52.47
2023-03-11T10:43:39.960Z,53.88
2023-03-11T10:46:07.047Z,55.22
2023-03-11T10:48:28.560Z,53.63
2023-03-11T10:51:03.452Z,54.78
2023-03-11T10:53:25.317Z,55.00
2023-03-11T10:55:50.131Z,53.66
2023-03-11T10:58:14.682Z,52.77
2023-03-11T11:00:36.188Z,52.21
2023-03-11T11:02:58.398Z,51.07
2023-03-11T11:05:22.620Z,50.38
2023-03-11T11:08:01.754Z,49.68
2023-03-11T11:10:27.408Z,50.47
2023-03-11T11:12:51.603Z,50.85
2023-03-11T11:15:21.974Z,50.86
2023-03-11T11:17:47.372Z,49.44
2023-03-11T11:20:18.067Z,51.13
2023-03-11T11:22:50.709Z,50.76
2023-03-11T11:25:25.646Z,50.96
2023-03-11T11:27:56.178Z,50.81
2023-03-11T11:30:18.240Z,49.80
2023-03-11T11:32:39.755Z,51.76
2023-03-11T11:35:05.190Z,50.31
2023-03-11T11:37:32.118Z,48.78
2023-03-11T11:39:57.633Z,49.49
2023-03-11T11:42:20.372Z,47.90
2023-03-11T11:44:46.282Z,48.64
2023-03-11T11:47:17.696Z,46.68
2023-03-11T11:49:49.206Z,46.36
2023-03-11T11:52:18.581Z,46.79
2023-03-11T11:54:52.288Z,45.91
2023-03-11T11:57:16.859Z,45.63
2023-03-11T11:59:38.701Z,45.75
2023-03-11T12:02:18.834Z,45.94
2023-03-11T12:04:58.444Z,46.05
2023-03-11T12:07:45.979Z,46.62
2023-03-11T12:10:32.186Z,45.63
2023-03-11T12:13:05.828Z,44.64
2023-03-11T12:15:32.104Z,45.47
2023-03-11T12:18:04.894Z,45.64
2023-03-11T12:20:37.172Z,45.50
2023-03-11T12:23:10.825Z,45.77
2023-03-11T12:25:50.904Z,44.68
2023-03-11T12:28:22.214Z,45.82
2023-03-11T12:30:50.504Z,45.88
2023-03-11T12:33:17.422Z,46.93
2023-03-11T12:35:39.318Z,47.87
2023-03-11T12:38:13.238Z,46.31
2023-03-11T12:41:04.371Z,46.04
2023-03-11T12:43:33.743Z,46.49
2023-03-11T12:46:00.884Z,45.52
2023-03-11T12:48:44.293Z,45.82
2023-03-11T12:51:06.143Z,45.58
2023-03-11T12:53:47.432Z,46.98
2023-03-11T12:56:32.799Z,46.75
2023-03-11T12:59:19.320Z,46.61
2023-03-11T13:02:25.798Z,46.22
2023-03-11T13:05:15.363Z,45.50
2023-03-11T13:07:58.579Z,44.95
2023-03-11T13:10:43.131Z,44.65
2023-03-11T13:13:23.147Z,46.06
2023-03-11T13:15:44.637Z,44.53
2023-03-11T13:18:23.592Z,43.38
2023-03-11T13:20:49.304Z,45.66
2023-03-11T13:23:27.691Z,45.48
2023-03-11T13:25:51.736Z,45.51
2023-03-11T13:28:20.147Z,46.36
2023-03-11T13:30:51.897Z,46.38
2023-03-11T13:33:31.781Z,47.59
2023-03-11T13:36:13.805Z,47.92
2023-03-11T13:38:41.010Z,46.75
2023-03-11T13:41:04.439Z,45.73
2023-03-11T13:43:26.613Z,46.60
2023-03-11T13:45:53.781Z,46.57
2023-03-11T13:48:30.909Z,45.94
2023-03-11T13:50:59.068Z,46.18
2023-03-11T13:53:34.708Z,46.87
2023-03-11T13:55:56.238Z,47.31
2023-03-11T13:58:26.080Z,46.05
2023-03-11T14:00:58.425Z,46.23
2023-03-11T14:03:23.034Z,46.60
2023-03-11T14:05:46.698Z,45.77
2023-03-11T14:08:34.926Z,45.92
2023-03-11T14:11:01.548Z,44.64
2023-03-11T14:13:24.824Z,46.80
2023-03-11T14:15:52.919Z,47.69
2023-03-11T14:18:41.132Z,47.29
2023-03-11T14:21:04.906Z,47.70
2023-03-11T14:23:30.650Z,47.01
2023-03-11T14:26:01.423Z,47.88
2023-03-11T14:28:23.010Z,47.13
2023-03-11T14:30:56.793Z,47.67
2023-03-11T14:33:21.934Z,48.84
2023-03-11T14:35:55.971Z,46.63
2023-03-11T14:38:22.302Z,47.83
2023-03-11T14:40:43.772Z,48.17
2023-03-11T14:43:08.159Z,46.16
2023-03-11T14:45:33.277Z,46.30
2023-03-11T14:48:15.140Z,47.64
2023-03-11T14:50:36.743Z,47.04
2023-03-11T14:53:13.923Z,46.83
2023-03-11T14:55:42.745Z,46.39
2023-03-11T14:58:13.048Z,47.10
2023-03-11T15:00:39.851Z,46.94
2023-03-11T15:03:12.940Z,44.93
2023-03-11T15:05:42.587Z,46.17
2023-03-11T15:08:07.362Z,47.15
2023-03-11T15:10:29.126Z,46.90
2023-03-11T15:12:50.672Z,47.39
2023-03-11T15:15:28.208Z,46.98
2023-03-11T15:17:57.626Z,45.92
2023-03-11T15:20:27.048Z,45.91
2023-03-11T15:22:58.253Z,48.52
2023-03-11T15:25:20.174Z,47.97
2023-03-11T15:27:41.748Z,47.71
2023-03-11T15:30:17.648Z,47.07
2023-03-11T15:32:41.978Z,47.13
2023-03-11T15:35:27.055Z,44.59
2023-03-11T15:37:50.821Z,44.96
2023-03-11T15:40:20.464Z,45.47
2023-03-11T15:42:42.051Z,44.94
2023-03-11T15:45:19.071Z,44.61
2023-03-11T15:47:40.907Z,45.24
2023-03-11T15:50:23.553Z,45.38
2023-03-11T15:52:47.170Z,45.25
2023-03-11T15:55:11.122Z,46.71
2023-03-11T15:57:32.968Z,45.43
2023-03-11T15:59:57.086Z,46.11
2023-03-11T16:02:23.300Z,45.45
2023-03-11T16:04:44.783Z,45.07
2023-03-11T16:07:08.707Z,45.70
2023-03-11T16:09:31.603Z,44.57
2023-03-11T16:11:53.082Z,45.57
2023-03-11T16:14:19.996Z,45.78
2023-03-11T16:16:41.990Z,46.82
2023-03-11T16:19:03.459Z,46.78
2023-03-11T16:21:33.209Z,46.65
2023-03-11T16:23:54.935Z,46.74
2023-03-11T16:26:17.236Z,46.64
2023-03-11T16:28:39.417Z,47.28
2023-03-11T16:31:01.065Z,47.69
2023-03-11T16:33:22.810Z,46.87
2023-03-11T16:35:44.285Z,47.61
2023-03-11T16:38:07.636Z,48.17
2023-03-11T16:40:29.685Z,47.96
2023-03-11T16:42:54.207Z,48.51
2023-03-11T16:45:17.591Z,47.32
2023-03-11T16:47:39.083Z,47.73
2023-03-11T16:50:00.643Z,47.62
2023-03-11T16:52:23.233Z,47.40
2023-03-11T16:54:44.747Z,47.86
2023-03-11T16:57:06.228Z,48.31
2023-03-11T16:59:27.669Z,47.96
2023-03-11T17:01:49.115Z,48.21
2023-03-11T17:04:10.610Z,48.87
2023-03-11T17:06:32.586Z,48.93
2023-03-11T17:08:54.044Z,49.18
2023-03-11T17:11:20.973Z,49.53
2023-03-11T17:13:42.426Z,49.92
2023-03-11T17:16:04.227Z,49.79
2023-03-11T17:18:26.130Z,50.09
2023-03-11T17:20:47.562Z,50.02
2023-03-11T17:23:09.041Z,49.91
2023-03-11T17:25:30.489Z,50.36
2023-03-11T17:27:52.011Z,51.00
2023-03-11T17:30:17.597Z,50.55
2023-03-11T17:32:41.020Z,51.60
2023-03-11T17:35:02.767Z,51.58
2023-03-11T17:37:24.620Z,52.97
2023-03-11T17:39:46.120Z,53.18
2023-03-11T17:42:07.582Z,53.27
2023-03-11T17:44:35.338Z,53.27
2023-03-11T17:47:02.592Z,53.30
2023-03-11T17:49:24.792Z,53.16
2023-03-11T17:51:46.315Z,53.49
2023-03-11T17:54:07.775Z,53.79
2023-03-11T17:56:29.256Z,53.98
2023-03-11T17:58:51.201Z,54.07
2023-03-11T18:01:22.289Z,54.62
2023-03-11T18:03:43.876Z,54.89
2023-03-11T18:06:07.551Z,54.69
2023-03-11T18:08:29.534Z,54.59
2023-03-11T18:10:52.284Z,54.71
2023-03-11T18:13:13.861Z,55.05
2023-03-11T18:15:35.300Z,56.57
2023-03-11T18:17:57.884Z,56.23
2023-03-11T18:20:19.486Z,56.46
2023-03-11T18:22:46.202Z,56.49
2023-03-11T18:25:11.012Z,56.52
2023-03-11T18:27:32.492Z,56.31
2023-03-11T18:29:53.915Z,56.13
2023-03-11T18:32:15.394Z,56.08
2023-03-11T18:34:37.564Z,56.19
2023-03-11T18:36:59.021Z,55.84
2023-03-11T18:39:20.459Z,56.71
2023-03-11T18:41:42.804Z,57.71
2023-03-11T18:44:04.608Z,57.44
2023-03-11T18:46:29.360Z,58.36
2023-03-11T18:48:53.247Z,58.02
2023-03-11T18:51:15.356Z,58.19
2023-03-11T18:53:36.987Z,58.03
2023-03-11T18:56:01.070Z,58.61
2023-03-11T18:58:22.507Z,58.25
2023-03-11T19:00:44.201Z,58.16
2023-03-11T19:03:07.215Z,58.25
2023-03-11T19:05:28.656Z,58.54
2023-03-11T19:07:50.120Z,58.49
2023-03-11T19:10:12.313Z,58.95
2023-03-11T19:12:34.412Z,58.84
2023-03-11T19:14:55.824Z,58.95
2023-03-11T19:17:18.288Z,59.01
2023-03-11T19:19:39.845Z,59.23
2023-03-11T19:22:01.300Z,59.04
2023-03-11T19:24:22.726Z,58.88
2023-03-11T19:26:45.919Z,59.53
2023-03-11T19:29:08.736Z,61.06
2023-03-11T19:31:30.161Z,61.19
2023-03-11T19:33:51.667Z,61.33
2023-03-11T19:36:13.669Z,60.79
2023-03-11T19:38:35.788Z,60.69
2023-03-11T19:41:02.182Z,61.06
2023-03-11T19:43:23.865Z,60.97
2023-03-11T19:45:49.532Z,60.92
2023-03-11T19:48:13.143Z,61.32
2023-03-11T19:50:34.719Z,61.30
2023-03-11T19:52:56.337Z,61.13
2023-03-11T19:55:17.940Z,61.16
2023-03-11T19:57:39.422Z,61.93
2023-03-11T20:00:00.913Z,61.49
2023-03-11T20:02:22.434Z,61.38
2023-03-11T20:04:43.885Z,61.23
2023-03-11T20:07:05.790Z,61.07
2023-03-11T20:09:27.268Z,61.27
2023-03-11T20:11:48.746Z,61.12
2023-03-11T20:14:10.850Z,61.08
2023-03-11T20:16:32.474Z,61.01
2023-03-11T20:18:54.041Z,61.45
2023-03-11T20:21:15.622Z,61.54
2023-03-11T20:23:37.892Z,61.41
2023-03-11T20:25:59.399Z,61.28
2023-03-11T20:28:21.053Z,61.59
2023-03-11T20:30:42.504Z,61.92
2023-03-11T20:33:04.091Z,61.83
2023-03-11T20:35:25.640Z,61.76
2023-03-11T20:37:47.128Z,62.32
2023-03-11T20:40:10.374Z,62.16
2023-03-11T20:42:32.531Z,62.00
2023-03-11T20:44:54.486Z,62.03
2023-03-11T20:47:16.005Z,62.19
2023-03-11T20:49:37.657Z,61.88
2023-03-11T20:51:59.601Z,61.97
2023-03-11T20:54:21.068Z,63.63
2023-03-11T20:56:42.820Z,63.06
2023-03-11T20:59:07.064Z,62.79
2023-03-11T21:01:30.956Z,62.81
2023-03-11T21:03:54.540Z,62.65
2023-03-11T21:06:20.399Z,62.45
2023-03-11T21:08:42.050Z,62.83
2023-03-11T21:11:03.788Z,62.70
2023-03-11T21:13:25.312Z,63.16
2023-03-11T21:15:46.810Z,64.45
2023-03-11T21:18:08.691Z,63.75
2023-03-11T21:20:30.221Z,63.52
2023-03-11T21:22:51.787Z,63.36
2023-03-11T21:25:13.325Z,63.63
2023-03-11T21:27:35.024Z,63.16
2023-03-11T21:29:57.887Z,63.45
2023-03-11T21:32:19.598Z,63.03
2023-03-11T21:34:41.197Z,63.35
2023-03-11T21:37:02.716Z,63.53
2023-03-11T21:39:24.232Z,63.77
2023-03-11T21:41:45.838Z,63.73
2023-03-11T21:44:07.318Z,63.97
2023-03-11T21:46:31.776Z,64.13
2023-03-11T21:48:53.466Z,64.73
2023-03-11T21:51:17.395Z,64.31
2023-03-11T21:53:38.955Z,64.39
2023-03-11T21:56:00.640Z,64.04
2023-03-11T21:58:22.671Z,63.70
2023-03-11T22:00:45.026Z,63.75
2023-03-11T22:03:06.791Z,63.70
2023-03-11T22:05:28.273Z,63.81
2023-03-11T22:07:49.845Z,64.84
2023-03-11T22:10:11.515Z,64.61
2023-03-11T22:12:33.061Z,65.21
2023-03-11T22:14:54.567Z,65.48
2023-03-11T22:17:16.138Z,65.47
2023-03-11T22:19:37.781Z,65.51
2023-03-11T22:21:59.330Z,65.28
2023-03-11T22:24:20.788Z,64.87
2023-03-11T22:26:42.299Z,64.61
2023-03-11T22:29:04.197Z,64.83
2023-03-11T22:31:26.068Z,64.32
2023-03-11T22:33:47.677Z,64.61
2023-03-11T22:36:09.668Z,64.64
2023-03-11T22:38:32.230Z,65.20
2023-03-11T22:40:53.684Z,64.93
2023-03-11T22:43:15.224Z,65.22
2023-03-11T22:45:36.695Z,64.59
2023-03-11T22:47:58.203Z,64.55
2023-03-11T22:50:19.797Z,64.94
2023-03-11T22:52:41.266Z,64.95
2023-03-11T22:55:02.891Z,64.56
2023-03-11T22:57:24.457Z,65.12
2023-03-11T22:59:45.915Z,64.91
2023-03-11T23:02:07.359Z,65.00
2023-03-11T23:04:28.860Z,65.11
2023-03-11T23:06:50.400Z,65.26
2023-03-11T23:09:11.850Z,64.98
2023-03-11T23:11:33.294Z,65.75
2023-03-11T23:13:56.800Z,65.53
2023-03-11T23:16:21.498Z,66.04
2023-03-11T23:18:44.939Z,66.78
2023-03-11T23:21:24.951Z,66.78
2023-03-11T23:23:46.608Z,66.93
2023-03-11T23:26:09.892Z,66.31
2023-03-11T23:28:31.360Z,66.68
2023-03-11T23:30:52.836Z,66.68
2023-03-11T23:33:14.319Z,66.18
2023-03-11T23:35:40.731Z,65.82
2023-03-11T23:38:02.252Z,65.75
2023-03-11T23:40:24.148Z,65.61
2023-03-11T23:42:45.607Z,66.46
2023-03-11T23:45:07.792Z,66.24
2023-03-11T23:47:29.308Z,66.32
2023-03-11T23:49:50.725Z,66.39
2023-03-11T23:52:12.260Z,66.31
2023-03-11T23:54:33.787Z,66.26
2023-03-11T23:56:55.289Z,65.83
2023-03-11T23:59:16.717Z,65.94
